createdAt,value
2023-03-05T00:00:54.208Z,54.37
2023-03-05T00:03:40.681Z,54.30
2023-03-05T00:06:28.472Z,54.52
2023-03-05T00:09:14.773Z,54.38
2023-03-05T00:12:00.770Z,54.33
2023-03-05T00:14:47.654Z,54.35
2023-03-05T00:17:33.355Z,54.16
2023-03-05T00:20:19.304Z,54.44
2023-03-05T00:23:05.212Z,53.85
2023-03-05T00:25:51.197Z,54.91
2023-03-05T00:28:36.904Z,54.63
2023-03-05T00:31:32.280Z,54.55
2023-03-05T00:34:19.451Z,54.29
2023-03-05T00:37:06.027Z,54.63
2023-03-05T00:39:51.784Z,54.36
2023-03-05T00:42:38.837Z,54.81
2023-03-05T00:45:24.907Z,54.27
2023-03-05T00:48:11.792Z,54.06
2023-03-05T00:50:57.483Z,54.83
2023-03-05T00:53:46.406Z,54.81
2023-03-05T00:56:32.316Z,54.13
2023-03-05T00:59:18.268Z,54.75
2023-03-05T01:02:03.932Z,55.01
2023-03-05T01:04:49.715Z,54.75
2023-03-05T01:07:35.434Z,54.93
2023-03-05T01:10:23.866Z,54.59
2023-03-05T01:13:09.668Z,54.86
2023-03-05T01:15:55.838Z,54.79
2023-03-05T01:18:41.782Z,54.74
2023-03-05T01:21:27.375Z,55.35
2023-03-05T01:24:13.251Z,55.15
2023-03-05T01:26:59.135Z,54.93
2023-03-05T01:29:45.051Z,55.28
2023-03-05T01:32:30.827Z,54.68
2023-03-05T01:35:19.901Z,54.71
2023-03-05T01:38:05.661Z,55.13
2023-03-05T01:40:51.754Z,55.15
2023-03-05T01:43:38.043Z,55.06
2023-03-05T01:46:26.430Z,55.04
2023-03-05T01:49:14.967Z,55.06
2023-03-05T01:52:09.336Z,55.40
2023-03-05T01:55:16.445Z,54.95
2023-03-05T01:58:07.498Z,54.33
2023-03-05T02:00:55.035Z,54.63
2023-03-05T02:03:41.774Z,55.28
2023-03-05T02:06:28.267Z,55.21
2023-03-05T02:09:14.336Z,54.89
2023-03-05T02:12:00.171Z,54.72
2023-03-05T02:14:48.114Z,55.01
2023-03-05T02:17:34.180Z,55.19
2023-03-05T02:20:23.479Z,54.96
2023-03-05T02:23:09.556Z,55.12
2023-03-05T02:25:55.694Z,55.42
2023-03-05T02:28:50.793Z,55.27
2023-03-05T02:31:39.089Z,54.94
2023-03-05T02:34:25.115Z,55.28
2023-03-05T02:37:11.344Z,54.83
2023-03-05T02:39:58.245Z,55.08
2023-03-05T02:42:44.974Z,54.72
2023-03-05T02:45:32.117Z,54.41
2023-03-05T02:48:18.130Z,54.59
2023-03-05T02:51:05.877Z,54.81
2023-03-05T02:53:51.867Z,54.78
2023-03-05T02:56:38.383Z,55.31
2023-03-05T02:59:24.751Z,54.78
2023-03-05T03:02:10.387Z,55.10
2023-03-05T03:04:56.289Z,54.56
2023-03-05T03:07:41.998Z,55.00
2023-03-05T03:10:28.073Z,54.76
2023-03-05T03:13:13.767Z,54.80
2023-03-05T03:16:04.999Z,54.78
2023-03-05T03:18:51.022Z,54.41
2023-03-05T03:21:37.299Z,54.33
2023-03-05T03:24:23.358Z,54.22
2023-03-05T03:27:09.639Z,54.46
2023-03-05T03:29:55.345Z,54.71
2023-03-05T03:32:40.931Z,54.89
2023-03-05T03:35:26.810Z,54.38
2023-03-05T03:38:13.830Z,54.37
2023-03-05T03:40:59.625Z,54.27
2023-03-05T03:43:45.315Z,54.54
2023-03-05T03:46:31.390Z,54.26
2023-03-05T03:49:23.262Z,53.91
2023-03-05T03:52:10.325Z,54.54
2023-03-05T03:55:01.667Z,54.61
2023-03-05T03:57:47.903Z,54.59
2023-03-05T04:00:33.583Z,54.38
2023-03-05T04:03:27.596Z,54.15
2023-03-05T04:06:14.277Z,54.19
2023-03-05T04:09:00.565Z,54.11
2023-03-05T04:11:46.243Z,54.17
2023-03-05T04:14:39.703Z,54.05
2023-03-05T04:17:25.338Z,54.34
2023-03-05T04:20:11.789Z,54.60
2023-03-05T04:22:57.659Z,54.32
2023-03-05T04:25:43.836Z,53.76
2023-03-05T04:28:30.515Z,53.91
2023-03-05T04:31:17.372Z,53.76
2023-03-05T04:34:03.083Z,54.01
2023-03-05T04:36:48.947Z,53.97
2023-03-05T04:39:34.877Z,54.26
2023-03-05T04:42:21.186Z,54.00
2023-03-05T04:45:08.469Z,53.69
2023-03-05T04:47:54.302Z,54.06
2023-03-05T04:50:40.549Z,53.91
2023-03-05T04:53:26.591Z,53.99
2023-03-05T04:56:12.580Z,53.96
2023-03-05T04:59:00.171Z,54.22
2023-03-05T05:01:46.292Z,53.94
2023-03-05T05:04:33.451Z,54.21
2023-03-05T05:07:19.318Z,53.81
2023-03-05T05:10:05.518Z,53.76
2023-03-05T05:12:51.737Z,53.86
2023-03-05T05:15:40.472Z,53.75
2023-03-05T05:18:26.730Z,53.79
2023-03-05T05:21:14.118Z,53.70
2023-03-05T05:24:00.212Z,53.89
2023-03-05T05:26:46.087Z,53.94
2023-03-05T05:29:32.408Z,53.56
2023-03-05T05:32:24.184Z,53.47
2023-03-05T05:35:10.905Z,53.71
2023-03-05T05:37:56.539Z,53.62
2023-03-05T05:40:42.459Z,53.78
2023-03-05T05:43:28.156Z,54.07
2023-03-05T05:46:16.403Z,53.80
2023-03-05T05:49:02.275Z,53.92
2023-03-05T05:51:48.094Z,53.96
2023-03-05T05:54:33.943Z,53.71
2023-03-05T05:57:20.993Z,53.49
2023-03-05T06:00:11.231Z,53.92
2023-03-05T06:03:00.239Z,53.75
2023-03-05T06:05:47.711Z,53.34
2023-03-05T06:08:34.018Z,52.96
2023-03-05T06:11:20.716Z,53.63
2023-03-05T06:14:08.382Z,53.16
2023-03-05T06:16:55.636Z,53.27
2023-03-05T06:19:41.325Z,52.94
2023-03-05T06:22:27.103Z,52.86
2023-03-05T06:25:14.222Z,52.85
2023-03-05T06:27:59.882Z,52.87
2023-03-05T06:30:45.553Z,52.76
2023-03-05T06:33:31.445Z,52.68
2023-03-05T06:36:18.907Z,52.63
2023-03-05T06:39:05.463Z,52.25
2023-03-05T06:41:52.125Z,52.40
2023-03-05T06:44:40.058Z,52.77
2023-03-05T06:47:25.813Z,52.65
2023-03-05T06:50:14.655Z,52.40
2023-03-05T06:53:00.590Z,52.43
2023-03-05T06:55:46.315Z,51.90
2023-03-05T06:58:32.233Z,52.12
2023-03-05T07:01:18.930Z,52.27
2023-03-05T07:04:05.940Z,52.08
2023-03-05T07:06:51.663Z,51.71
2023-03-05T07:09:42.936Z,51.76
2023-03-05T07:12:28.679Z,51.98
2023-03-05T07:15:14.541Z,52.23
2023-03-05T07:18:00.563Z,52.19
2023-03-05T07:20:46.584Z,51.91
2023-03-05T07:23:32.765Z,51.96
2023-03-05T07:26:18.404Z,51.33
2023-03-05T07:29:04.338Z,51.55
2023-03-05T07:31:50.456Z,51.93
2023-03-05T07:34:37.743Z,51.32
2023-03-05T07:37:23.799Z,51.00
2023-03-05T07:40:10.407Z,50.93
2023-03-05T07:42:56.338Z,51.07
2023-03-05T07:45:48.930Z,50.98
2023-03-05T07:48:35.908Z,51.02
2023-03-05T07:51:23.403Z,50.34
2023-03-05T07:54:10.426Z,50.79
2023-03-05T07:56:57.385Z,50.51
2023-03-05T07:59:43.363Z,50.39
2023-03-05T08:02:29.910Z,50.09
2023-03-05T08:05:15.893Z,50.97
2023-03-05T08:08:02.096Z,50.03
2023-03-05T08:10:47.877Z,50.00
2023-03-05T08:13:34.117Z,50.24
2023-03-05T08:16:21.730Z,50.16
2023-03-05T08:19:08.393Z,50.09
2023-03-05T08:21:55.630Z,49.59
2023-03-05T08:24:41.845Z,50.00
2023-03-05T08:27:27.886Z,49.63
2023-03-05T08:30:17.392Z,50.34
2023-03-05T08:33:03.471Z,49.77
2023-03-05T08:35:49.277Z,49.67
2023-03-05T08:38:35.180Z,49.43
2023-03-05T08:41:21.570Z,49.13
2023-03-05T08:44:07.509Z,49.25
2023-03-05T08:46:55.811Z,49.43
2023-03-05T08:49:42.041Z,49.45
2023-03-05T08:52:27.870Z,49.23
2023-03-05T08:55:13.479Z,49.10
2023-03-05T08:57:59.239Z,48.64
2023-03-05T09:00:45.198Z,48.96
2023-03-05T09:03:31.410Z,48.48
2023-03-05T09:06:17.466Z,49.11
2023-03-05T09:09:03.300Z,48.90
2023-03-05T09:11:49.519Z,49.07
2023-03-05T09:14:35.579Z,48.32
2023-03-05T09:17:22.258Z,48.31
2023-03-05T09:20:11.463Z,48.56
2023-03-05T09:22:57.219Z,48.71
2023-03-05T09:25:43.066Z,48.29
2023-03-05T09:28:29.269Z,48.22
2023-03-05T09:31:15.368Z,47.83
2023-03-05T09:34:04.178Z,48.23
2023-03-05T09:36:50.612Z,47.96
2023-03-05T09:39:37.087Z,47.82
2023-03-05T09:42:44.355Z,46.95
2023-03-05T09:45:52.895Z,47.63
2023-03-05T09:48:50.526Z,47.39
2023-03-05T09:51:40.450Z,47.37
2023-03-05T09:54:40.421Z,47.07
2023-03-05T09:57:34.736Z,47.71
2023-03-05T10:00:42.173Z,46.28
2023-03-05T10:04:22.388Z,45.32
2023-03-05T10:07:21.802Z,46.21
2023-03-05T10:10:14.616Z,47.04
2023-03-05T10:13:02.460Z,47.34
2023-03-05T10:15:57.259Z,44.73
2023-03-05T10:18:52.071Z,46.70
2023-03-05T10:21:46.460Z,47.33
2023-03-05T10:24:41.680Z,47.45
2023-03-05T10:28:10.402Z,46.00
2023-03-05T10:31:08.562Z,46.67
2023-03-05T10:34:03.660Z,47.09
2023-03-05T10:36:52.263Z,47.33
2023-03-05T10:39:57.894Z,46.27
2023-03-05T10:43:18.337Z,46.94
2023-03-05T10:46:05.222Z,47.10
2023-03-05T10:48:55.839Z,46.90
2023-03-05T10:51:49.495Z,46.32
2023-03-05T10:54:38.641Z,46.83
2023-03-05T10:57:29.880Z,46.45
2023-03-05T11:00:26.111Z,46.26
2023-03-05T11:03:11.907Z,46.74
2023-03-05T11:06:02.537Z,45.91
2023-03-05T11:08:48.526Z,46.19
2023-03-05T11:11:34.508Z,45.49
2023-03-05T11:14:31.134Z,44.64
2023-03-05T11:17:28.562Z,45.25
2023-03-05T11:20:26.805Z,45.40
2023-03-05T11:23:20.149Z,45.03
2023-03-05T11:26:19.859Z,45.51
2023-03-05T11:29:18.385Z,44.78
2023-03-05T11:32:36.523Z,42.67
2023-03-05T11:35:32.665Z,44.52
2023-03-05T11:38:26.369Z,45.24
2023-03-05T11:41:12.276Z,45.11
2023-03-05T11:43:59.516Z,44.71
2023-03-05T11:46:51.994Z,44.54
2023-03-05T11:49:42.978Z,44.77
2023-03-05T11:52:32.269Z,45.05
2023-03-05T11:55:43.053Z,44.74
2023-03-05T11:58:34.619Z,44.66
2023-03-05T12:01:23.093Z,44.59
2023-03-05T12:04:09.116Z,44.69
2023-03-05T12:06:59.125Z,44.10
2023-03-05T12:09:47.783Z,44.32
2023-03-05T12:12:43.299Z,44.32
2023-03-05T12:15:31.715Z,43.39
2023-03-05T12:18:19.705Z,43.76
2023-03-05T12:21:14.741Z,43.73
2023-03-05T12:24:03.841Z,43.97
2023-03-05T12:27:04.982Z,42.78
2023-03-05T12:29:52.191Z,43.13
2023-03-05T12:32:44.306Z,42.57
2023-03-05T12:35:41.016Z,43.17
2023-03-05T12:38:31.163Z,43.54
2023-03-05T12:41:23.040Z,42.86
2023-03-05T12:44:08.886Z,43.27
2023-03-05T12:47:15.819Z,37.05
2023-03-05T12:50:02.167Z,42.55
2023-03-05T12:52:48.220Z,42.82
2023-03-05T12:55:35.946Z,42.66
2023-03-05T12:58:49.990Z,40.91
2023-03-05T13:01:54.323Z,39.79
2023-03-05T13:04:40.848Z,40.62
2023-03-05T13:07:26.800Z,42.86
2023-03-05T13:10:28.088Z,41.99
2023-03-05T13:13:16.140Z,42.15
2023-03-05T13:16:02.370Z,42.47
2023-03-05T13:18:49.046Z,42.30
2023-03-05T13:21:35.439Z,42.20
2023-03-05T13:24:21.306Z,42.17
2023-03-05T13:27:22.204Z,42.12
2023-03-05T13:30:23.135Z,41.61
2023-03-05T13:33:17.350Z,42.12
2023-03-05T13:36:03.948Z,42.25
2023-03-05T13:38:50.249Z,41.98
2023-03-05T13:41:36.221Z,42.10
2023-03-05T13:44:22.283Z,41.97
2023-03-05T13:47:20.102Z,41.75
2023-03-05T13:50:08.372Z,41.89
2023-03-05T13:52:54.388Z,41.73
2023-03-05T13:55:40.473Z,41.66
2023-03-05T13:58:47.661Z,40.76
2023-03-05T14:01:38.219Z,41.70
2023-03-05T14:04:29.653Z,41.84
2023-03-05T14:07:39.747Z,41.29
2023-03-05T14:10:36.643Z,41.36
2023-03-05T14:13:25.115Z,41.59
2023-03-05T14:16:13.845Z,41.29
2023-03-05T14:19:01.707Z,41.06
2023-03-05T14:21:50.358Z,41.13
2023-03-05T14:24:37.349Z,40.71
2023-03-05T14:27:23.474Z,40.82
2023-03-05T14:30:17.513Z,40.35
2023-03-05T14:33:06.955Z,40.82
2023-03-05T14:36:00.069Z,40.69
2023-03-05T14:38:49.231Z,40.43
2023-03-05T14:41:40.805Z,39.90
2023-03-05T14:44:26.653Z,40.72
2023-03-05T14:47:12.641Z,40.58
2023-03-05T14:49:58.679Z,40.86
2023-03-05T14:52:45.407Z,40.64
2023-03-05T14:55:32.393Z,40.86
2023-03-05T14:58:22.021Z,40.82
2023-03-05T15:01:13.272Z,40.69
2023-03-05T15:04:01.125Z,40.69
2023-03-05T15:06:50.854Z,40.75
2023-03-05T15:09:37.882Z,40.87
2023-03-05T15:12:24.835Z,40.61
2023-03-05T15:15:15.300Z,40.56
2023-03-05T15:18:01.885Z,40.68
2023-03-05T15:20:57.350Z,40.14
2023-03-05T15:23:44.627Z,40.68
2023-03-05T15:26:30.378Z,40.34
2023-03-05T15:29:15.998Z,40.11
2023-03-05T15:32:02.592Z,40.46
2023-03-05T15:34:48.744Z,40.28
2023-03-05T15:37:35.158Z,40.08
2023-03-05T15:40:21.912Z,40.70
2023-03-05T15:43:07.882Z,40.11
2023-03-05T15:45:53.849Z,40.95
2023-03-05T15:48:39.752Z,40.65
2023-03-05T15:51:25.732Z,40.59
2023-03-05T15:54:11.726Z,40.20
2023-03-05T15:56:57.711Z,40.25
2023-03-05T15:59:43.830Z,40.45
2023-03-05T16:02:29.806Z,40.45
2023-03-05T16:05:15.616Z,40.80
2023-03-05T16:08:02.147Z,40.40
2023-03-05T16:10:48.130Z,40.16
2023-03-05T16:13:35.134Z,40.20
2023-03-05T16:16:23.652Z,39.98
2023-03-05T16:19:10.430Z,40.33
2023-03-05T16:21:56.553Z,40.66
2023-03-05T16:24:42.543Z,40.03
2023-03-05T16:27:29.247Z,40.29
2023-03-05T16:30:17.458Z,40.58
2023-03-05T16:33:03.471Z,40.52
2023-03-05T16:35:49.718Z,40.80
2023-03-05T16:38:35.742Z,40.25
2023-03-05T16:41:24.178Z,40.30
2023-03-05T16:44:11.000Z,40.28
2023-03-05T16:46:57.249Z,40.77
2023-03-05T16:49:44.470Z,40.11
2023-03-05T16:52:30.470Z,40.66
2023-03-05T16:55:16.327Z,40.52
2023-03-05T16:58:02.562Z,40.10
2023-03-05T17:00:49.139Z,40.37
2023-03-05T17:03:38.914Z,40.54
2023-03-05T17:06:27.122Z,40.17
2023-03-05T17:09:13.943Z,40.57
2023-03-05T17:12:00.207Z,40.54
2023-03-05T17:14:46.293Z,40.16
2023-03-05T17:17:32.557Z,40.43
2023-03-05T17:20:20.120Z,40.76
2023-03-05T17:23:05.780Z,40.92
2023-03-05T17:25:52.548Z,41.16
2023-03-05T17:28:38.569Z,40.75
2023-03-05T17:31:24.885Z,40.79
2023-03-05T17:34:11.117Z,40.86
2023-03-05T17:36:56.768Z,40.52
2023-03-05T17:39:42.512Z,40.42
2023-03-05T17:42:28.401Z,41.14
2023-03-05T17:45:14.824Z,40.97
2023-03-05T17:48:00.840Z,41.06
2023-03-05T17:50:46.882Z,41.08
2023-03-05T17:53:32.518Z,40.90
2023-03-05T17:56:22.031Z,41.17
2023-03-05T17:59:07.937Z,41.44
2023-03-05T18:01:53.578Z,40.94
2023-03-05T18:04:41.062Z,41.26
2023-03-05T18:07:28.234Z,41.25
2023-03-05T18:10:15.446Z,41.14
2023-03-05T18:13:01.761Z,41.15
2023-03-05T18:15:47.894Z,41.62
2023-03-05T18:18:37.323Z,41.40
2023-03-05T18:21:24.898Z,41.59
2023-03-05T18:24:10.507Z,41.58
2023-03-05T18:26:56.628Z,41.39
2023-03-05T18:29:42.536Z,41.06
2023-03-05T18:32:29.662Z,41.06
2023-03-05T18:35:15.411Z,41.29
2023-03-05T18:38:01.402Z,41.65
2023-03-05T18:40:47.983Z,41.16
2023-03-05T18:43:35.152Z,41.64
2023-03-05T18:46:21.385Z,41.70
2023-03-05T18:49:09.486Z,41.37
2023-03-05T18:51:55.799Z,41.46
2023-03-05T18:54:41.734Z,41.75
2023-03-05T18:57:27.683Z,41.35
2023-03-05T19:00:15.272Z,42.12
2023-03-05T19:03:03.435Z,41.54
2023-03-05T19:05:51.274Z,42.02
2023-03-05T19:08:38.503Z,42.07
2023-03-05T19:11:25.663Z,41.88
2023-03-05T19:14:12.669Z,41.94
2023-03-05T19:16:58.618Z,42.28
2023-03-05T19:19:49.979Z,42.18
2023-03-05T19:22:35.822Z,41.61
2023-03-05T19:25:21.954Z,41.92
2023-03-05T19:28:07.960Z,42.22
2023-03-05T19:30:53.908Z,42.29
2023-03-05T19:33:40.229Z,42.24
2023-03-05T19:36:25.873Z,42.57
2023-03-05T19:39:11.880Z,42.52
2023-03-05T19:41:58.118Z,42.60
2023-03-05T19:44:44.256Z,42.54
2023-03-05T19:47:30.327Z,42.39
2023-03-05T19:50:16.640Z,42.71
2023-03-05T19:53:02.421Z,42.58
2023-03-05T19:55:48.423Z,42.60
2023-03-05T19:58:35.081Z,42.87
2023-03-05T20:01:23.672Z,42.90
2023-03-05T20:04:13.453Z,43.04
2023-03-05T20:06:59.377Z,42.91
2023-03-05T20:09:45.461Z,42.92
2023-03-05T20:12:31.540Z,42.91
2023-03-05T20:15:18.405Z,43.09
2023-03-05T20:18:04.336Z,42.76
2023-03-05T20:20:54.880Z,43.16
2023-03-05T20:23:40.860Z,42.93
2023-03-05T20:26:27.073Z,42.82
2023-03-05T20:29:17.348Z,42.75
2023-03-05T20:32:03.998Z,43.12
2023-03-05T20:34:51.239Z,42.90
2023-03-05T20:38:25.010Z,43.01
2023-03-05T20:41:16.497Z,43.47
2023-03-05T20:44:05.525Z,43.30
2023-03-05T20:47:23.013Z,43.25
2023-03-05T20:50:16.948Z,43.11
2023-03-05T20:53:04.311Z,43.15
2023-03-05T20:55:51.205Z,43.23
2023-03-05T21:03:20.929Z,43.40
2023-03-05T21:06:08.341Z,43.81
2023-03-05T21:08:54.420Z,43.56
2023-03-05T21:11:46.074Z,43.67
2023-03-05T21:14:37.722Z,43.38
2023-03-05T21:17:23.351Z,43.89
2023-03-05T21:20:12.480Z,43.83
2023-03-05T21:22:58.841Z,43.89
2023-03-05T21:25:45.187Z,43.65
2023-03-05T21:28:31.977Z,43.98
2023-03-05T21:31:20.662Z,44.01
2023-03-05T21:34:07.153Z,43.84
2023-03-05T21:36:53.525Z,43.93
2023-03-05T21:39:39.753Z,44.15
2023-03-05T21:42:25.982Z,43.92
2023-03-05T21:45:14.649Z,43.81
2023-03-05T21:48:01.666Z,44.11
2023-03-05T21:50:48.424Z,44.05
2023-03-05T21:53:36.569Z,44.03
2023-03-05T21:56:25.092Z,44.02
2023-03-05T21:59:11.065Z,44.29
2023-03-05T22:01:56.819Z,44.15
2023-03-05T22:04:43.183Z,44.14
2023-03-05T22:07:28.838Z,44.20
2023-03-05T22:10:19.155Z,44.37
2023-03-05T22:13:17.791Z,44.54
2023-03-05T22:16:04.064Z,44.47
2023-03-05T22:18:51.332Z,44.52
2023-03-05T22:21:37.475Z,44.49
2023-03-05T22:24:25.493Z,44.51
2023-03-05T22:27:11.521Z,44.83
2023-03-05T22:29:58.310Z,44.67
2023-03-05T22:32:44.140Z,44.85
2023-03-05T22:35:30.185Z,45.02
2023-03-05T22:38:16.369Z,44.88
2023-03-05T22:41:02.442Z,44.94
2023-03-05T22:43:49.123Z,45.42
2023-03-05T22:46:35.017Z,45.39
2023-03-05T22:49:22.032Z,45.52
2023-03-05T22:52:07.777Z,45.46
2023-03-05T22:54:55.942Z,45.63
2023-03-05T22:57:43.271Z,45.51
2023-03-05T23:00:28.921Z,45.58
2023-03-05T23:03:15.578Z,45.74
2023-03-05T23:06:01.491Z,45.52
2023-03-05T23:08:47.460Z,45.86
2023-03-05T23:11:33.097Z,45.92
2023-03-05T23:14:18.855Z,45.66
2023-03-05T23:17:04.837Z,45.63
2023-03-05T23:19:50.840Z,45.91
2023-03-05T23:22:37.826Z,45.88
2023-03-05T23:25:25.662Z,46.08
2023-03-05T23:28:12.334Z,45.82
2023-03-05T23:30:57.979Z,45.51
2023-03-05T23:33:44.059Z,45.76
2023-03-05T23:36:29.945Z,46.23
2023-03-05T23:39:15.798Z,45.77
2023-03-05T23:42:01.582Z,46.43
2023-03-05T23:44:47.397Z,46.49
2023-03-05T23:47:36.534Z,46.40
2023-03-05T23:50:25.289Z,46.14
2023-03-05T23:53:11.250Z,46.25
2023-03-05T23:55:59.324Z,46.25
2023-03-05T23:58:45.251Z,46.34
